sensor_id;sensor_type;location;lat;lon;timestamp;pressure;altitude;pressure_sealevel;temperature;humidity
52745;BME280;38637;49.984;20.426;2023-02-02T00:01:41;98342.94;;;3.63;84.11
52745;BME280;38637;49.984;20.426;2023-02-02T00:04:24;98351.53;;;3.60;83.75
52745;BME280;38637;49.984;20.426;2023-02-02T00:06:51;98347.69;;;3.56;83.49
52745;BME280;38637;49.984;20.426;2023-02-02T00:09:18;98347.69;;;3.56;83.78
52745;BME280;38637;49.984;20.426;2023-02-02T00:11:44;98349.78;;;3.54;84.19
52745;BME280;38637;49.984;20.426;2023-02-02T00:14:10;98345.56;;;3.58;83.13
52745;BME280;38637;49.984;20.426;2023-02-02T00:16:46;98346.13;;;3.60;83.17
52745;BME280;38637;49.984;20.426;2023-02-02T00:19:26;98349.16;;;3.64;83.76
52745;BME280;38637;49.984;20.426;2023-02-02T00:21:53;98351.03;;;3.63;82.49
52745;BME280;38637;49.984;20.426;2023-02-02T00:24:19;98355.94;;;3.66;82.82
52745;BME280;38637;49.984;20.426;2023-02-02T00:26:47;98341.97;;;3.69;82.14
52745;BME280;38637;49.984;20.426;2023-02-02T00:29:21;98310.75;;;3.45;82.11
52745;BME280;38637;49.984;20.426;2023-02-02T00:31:47;98348.44;;;3.68;82.12
52745;BME280;38637;49.984;20.426;2023-02-02T00:34:13;98352.53;;;3.71;82.18
52745;BME280;38637;49.984;20.426;2023-02-02T00:36:39;98349.34;;;3.74;81.98
52745;BME280;38637;49.984;20.426;2023-02-02T00:39:05;98348.63;;;3.79;82.42
52745;BME280;38637;49.984;20.426;2023-02-02T00:41:31;98362.03;;;3.74;81.92
52745;BME280;38637;49.984;20.426;2023-02-02T00:43:56;98357.19;;;3.76;82.24
52745;BME280;38637;49.984;20.426;2023-02-02T00:46:41;98352.63;;;3.76;81.90
52745;BME280;38637;49.984;20.426;2023-02-02T00:49:06;98359.56;;;3.72;82.22
52745;BME280;38637;49.984;20.426;2023-02-02T00:51:32;98360.31;;;3.67;83.11
52745;BME280;38637;49.984;20.426;2023-02-02T00:53:57;98353.03;;;3.68;83.80
52745;BME280;38637;49.984;20.426;2023-02-02T00:56:23;98360.88;;;3.69;83.71
52745;BME280;38637;49.984;20.426;2023-02-02T00:58:49;98369.72;;;3.65;83.79
52745;BME280;38637;49.984;20.426;2023-02-02T01:01:16;98377.97;;;3.58;84.61
52745;BME280;38637;49.984;20.426;2023-02-02T01:03:42;98376.63;;;3.61;84.80
52745;BME280;38637;49.984;20.426;2023-02-02T01:06:08;98382.28;;;3.59;83.84
52745;BME280;38637;49.984;20.426;2023-02-02T01:08:33;98380.06;;;3.56;84.32
52745;BME280;38637;49.984;20.426;2023-02-02T01:10:59;98384.53;;;3.51;85.05
52745;BME280;38637;49.984;20.426;2023-02-02T01:13:24;98379.16;;;3.51;84.73
52745;BME280;38637;49.984;20.426;2023-02-02T01:15:57;98385.31;;;3.34;85.71
52745;BME280;38637;49.984;20.426;2023-02-02T01:18:22;98388.22;;;3.33;86.62
52745;BME280;38637;49.984;20.426;2023-02-02T01:20:56;98388.38;;;3.26;86.48
52745;BME280;38637;49.984;20.426;2023-02-02T01:23:22;98387.22;;;3.22;86.69
52745;BME280;38637;49.984;20.426;2023-02-02T01:25:58;98394.34;;;3.28;86.45
52745;BME280;38637;49.984;20.426;2023-02-02T01:28:24;98398.34;;;3.26;86.90
52745;BME280;38637;49.984;20.426;2023-02-02T01:30:50;98391.69;;;3.16;86.35
52745;BME280;38637;49.984;20.426;2023-02-02T01:33:16;98404.91;;;3.18;86.65
52745;BME280;38637;49.984;20.426;2023-02-02T01:35:51;98411.25;;;3.23;86.71
52745;BME280;38637;49.984;20.426;2023-02-02T01:38:17;98396.47;;;3.14;86.93
52745;BME280;38637;49.984;20.426;2023-02-02T01:40:48;98404.34;;;3.16;87.48
52745;BME280;38637;49.984;20.426;2023-02-02T01:46:19;98411.88;;;2.90;87.62
52745;BME280;38637;49.984;20.426;2023-02-02T01:48:50;98411.06;;;2.78;88.52
52745;BME280;38637;49.984;20.426;2023-02-02T01:51:20;98397.69;;;2.71;88.84
52745;BME280;38637;49.984;20.426;2023-02-02T01:53:48;98416.69;;;2.88;88.84
52745;BME280;38637;49.984;20.426;2023-02-02T01:56:23;98411.19;;;2.95;88.83
52745;BME280;38637;49.984;20.426;2023-02-02T01:58:51;98428.88;;;2.91;88.68
52745;BME280;38637;49.984;20.426;2023-02-02T02:01:17;98416.22;;;2.80;89.19
52745;BME280;38637;49.984;20.426;2023-02-02T02:03:42;98424.78;;;2.76;89.40
52745;BME280;38637;49.984;20.426;2023-02-02T02:06:11;98419.13;;;2.78;89.02
52745;BME280;38637;49.984;20.426;2023-02-02T02:08:43;98428.97;;;2.84;89.23
52745;BME280;38637;49.984;20.426;2023-02-02T02:11:11;98434.50;;;2.78;88.56
52745;BME280;38637;49.984;20.426;2023-02-02T02:13:37;98436.72;;;2.69;89.67
52745;BME280;38637;49.984;20.426;2023-02-02T02:16:32;98438.38;;;2.70;89.54
52745;BME280;38637;49.984;20.426;2023-02-02T02:25:13;98445.75;;;2.63;89.65
52745;BME280;38637;49.984;20.426;2023-02-02T02:29:06;98441.88;;;2.59;90.02
52745;BME280;38637;49.984;20.426;2023-02-02T02:34:35;98452.66;;;2.59;89.54
52745;BME280;38637;49.984;20.426;2023-02-02T02:37:10;98461.09;;;2.62;89.89
52745;BME280;38637;49.984;20.426;2023-02-02T02:39:54;98461.88;;;2.51;90.33
52745;BME280;38637;49.984;20.426;2023-02-02T02:42:24;98469.03;;;2.57;90.32
52745;BME280;38637;49.984;20.426;2023-02-02T02:44:53;98464.84;;;2.61;89.90
52745;BME280;38637;49.984;20.426;2023-02-02T02:47:20;98468.00;;;2.58;89.72
52745;BME280;38637;49.984;20.426;2023-02-02T02:49:47;98477.97;;;2.58;90.47
52745;BME280;38637;49.984;20.426;2023-02-02T02:52:14;98462.72;;;2.51;90.83
52745;BME280;38637;49.984;20.426;2023-02-02T02:54:43;98486.28;;;2.56;91.03
52745;BME280;38637;49.984;20.426;2023-02-02T03:02:37;98494.34;;;2.56;91.55
52745;BME280;38637;49.984;20.426;2023-02-02T03:07:42;98497.06;;;2.56;91.53
52745;BME280;38637;49.984;20.426;2023-02-02T03:10:14;98491.09;;;2.66;90.73
52745;BME280;38637;49.984;20.426;2023-02-02T03:12:49;98494.03;;;2.64;90.68
52745;BME280;38637;49.984;20.426;2023-02-02T03:15:16;98499.88;;;2.61;90.50
52745;BME280;38637;49.984;20.426;2023-02-02T03:17:42;98498.34;;;2.65;90.78
52745;BME280;38637;49.984;20.426;2023-02-02T03:20:09;98494.28;;;2.74;89.92
52745;BME280;38637;49.984;20.426;2023-02-02T03:22:34;98491.34;;;2.76;89.98
52745;BME280;38637;49.984;20.426;2023-02-02T03:25:00;98498.38;;;2.77;89.32
52745;BME280;38637;49.984;20.426;2023-02-02T03:27:26;98500.13;;;2.71;89.72
52745;BME280;38637;49.984;20.426;2023-02-02T03:29:51;98513.38;;;2.73;89.53
52745;BME280;38637;49.984;20.426;2023-02-02T03:32:17;98515.47;;;2.71;89.59
52745;BME280;38637;49.984;20.426;2023-02-02T03:34:42;98516.66;;;2.63;89.73
52745;BME280;38637;49.984;20.426;2023-02-02T03:37:07;98502.34;;;2.63;90.36
52745;BME280;38637;49.984;20.426;2023-02-02T03:39:33;98501.38;;;2.57;90.69
52745;BME280;38637;49.984;20.426;2023-02-02T03:41:58;98515.31;;;2.54;91.06
52745;BME280;38637;49.984;20.426;2023-02-02T03:44:23;98513.94;;;2.51;92.39
52745;BME280;38637;49.984;20.426;2023-02-02T03:46:52;98510.31;;;2.58;92.70
52745;BME280;38637;49.984;20.426;2023-02-02T03:49:17;98507.00;;;2.56;92.84
52745;BME280;38637;49.984;20.426;2023-02-02T03:51:43;98512.16;;;2.57;92.82
52745;BME280;38637;49.984;20.426;2023-02-02T03:54:08;98500.06;;;2.48;92.37
52745;BME280;38637;49.984;20.426;2023-02-02T03:56:34;98503.72;;;2.53;92.75
52745;BME280;38637;49.984;20.426;2023-02-02T03:58:59;98493.09;;;2.59;92.46
52745;BME280;38637;49.984;20.426;2023-02-02T04:01:27;98500.91;;;2.60;91.75
52745;BME280;38637;49.984;20.426;2023-02-02T04:03:54;98509.38;;;2.64;92.01
52745;BME280;38637;49.984;20.426;2023-02-02T04:06:20;98509.25;;;2.59;91.70
52745;BME280;38637;49.984;20.426;2023-02-02T04:08:45;98511.81;;;2.53;91.33
52745;BME280;38637;49.984;20.426;2023-02-02T04:11:11;98508.19;;;2.60;91.18
52745;BME280;38637;49.984;20.426;2023-02-02T04:13:36;98513.81;;;2.58;90.82
52745;BME280;38637;49.984;20.426;2023-02-02T04:16:02;98530.13;;;2.63;91.18
52745;BME280;38637;49.984;20.426;2023-02-02T04:18:27;98522.75;;;2.70;90.77
52745;BME280;38637;49.984;20.426;2023-02-02T04:20:57;98527.09;;;2.71;90.39
52745;BME280;38637;49.984;20.426;2023-02-02T04:23:23;98528.75;;;2.72;90.54
52745;BME280;38637;49.984;20.426;2023-02-02T04:25:49;98528.50;;;2.74;90.84
52745;BME280;38637;49.984;20.426;2023-02-02T04:28:15;98540.91;;;2.75;91.10
52745;BME280;38637;49.984;20.426;2023-02-02T04:30:40;98542.78;;;2.74;90.47
52745;BME280;38637;49.984;20.426;2023-02-02T04:33:05;98529.22;;;2.69;90.92
52745;BME280;38637;49.984;20.426;2023-02-02T04:35:31;98527.91;;;2.72;91.06
52745;BME280;38637;49.984;20.426;2023-02-02T04:37:56;98522.03;;;2.75;90.63
52745;BME280;38637;49.984;20.426;2023-02-02T04:40:22;98539.41;;;2.79;90.90
52745;BME280;38637;49.984;20.426;2023-02-02T04:42:47;98543.28;;;2.83;91.41
52745;BME280;38637;49.984;20.426;2023-02-02T04:45:12;98543.63;;;2.87;90.89
52745;BME280;38637;49.984;20.426;2023-02-02T04:47:38;98543.16;;;2.90;90.90
52745;BME280;38637;49.984;20.426;2023-02-02T04:50:03;98542.50;;;2.94;90.69
52745;BME280;38637;49.984;20.426;2023-02-02T04:52:29;98531.91;;;2.93;90.67
52745;BME280;38637;49.984;20.426;2023-02-02T04:54:54;98543.31;;;2.95;90.47
52745;BME280;38637;49.984;20.426;2023-02-02T04:57:19;98554.69;;;2.97;90.84
52745;BME280;38637;49.984;20.426;2023-02-02T04:59:44;98547.41;;;2.97;90.19
52745;BME280;38637;49.984;20.426;2023-02-02T05:02:10;98538.50;;;2.97;90.28
52745;BME280;38637;49.984;20.426;2023-02-02T05:04:35;98550.94;;;2.98;90.02
52745;BME280;38637;49.984;20.426;2023-02-02T05:07:00;98549.88;;;2.99;90.46
52745;BME280;38637;49.984;20.426;2023-02-02T05:09:26;98545.19;;;2.94;89.86
52745;BME280;38637;49.984;20.426;2023-02-02T05:11:51;98545.41;;;2.93;89.25
52745;BME280;38637;49.984;20.426;2023-02-02T05:14:16;98541.06;;;2.92;89.48
52745;BME280;38637;49.984;20.426;2023-02-02T05:16:43;98553.97;;;2.90;89.44
52745;BME280;38637;49.984;20.426;2023-02-02T05:19:12;98554.78;;;2.79;89.99
52745;BME280;38637;49.984;20.426;2023-02-02T05:21:40;98551.38;;;2.83;89.89
52745;BME280;38637;49.984;20.426;2023-02-02T05:24:06;98547.75;;;2.89;89.79
52745;BME280;38637;49.984;20.426;2023-02-02T05:26:31;98544.72;;;2.97;89.43
52745;BME280;38637;49.984;20.426;2023-02-02T05:28:56;98544.91;;;2.84;89.37
52745;BME280;38637;49.984;20.426;2023-02-02T05:31:22;98556.78;;;2.95;89.15
52745;BME280;38637;49.984;20.426;2023-02-02T05:33:47;98544.94;;;2.96;89.06
52745;BME280;38637;49.984;20.426;2023-02-02T05:36:12;98557.38;;;2.97;88.73
52745;BME280;38637;49.984;20.426;2023-02-02T05:38:38;98552.69;;;3.04;88.38
52745;BME280;38637;49.984;20.426;2023-02-02T05:41:03;98549.88;;;3.11;87.37
52745;BME280;38637;49.984;20.426;2023-02-02T05:43:30;98554.81;;;3.14;86.94
52745;BME280;38637;49.984;20.426;2023-02-02T05:45:56;98550.13;;;3.09;86.81
52745;BME280;38637;49.984;20.426;2023-02-02T05:48:21;98538.97;;;3.17;86.36
52745;BME280;38637;49.984;20.426;2023-02-02T05:50:56;98558.22;;;3.21;85.43
52745;BME280;38637;49.984;20.426;2023-02-02T05:53:23;98550.38;;;3.19;85.24
52745;BME280;38637;49.984;20.426;2023-02-02T05:55:48;98559.13;;;3.15;85.11
52745;BME280;38637;49.984;20.426;2023-02-02T05:58:14;98552.13;;;3.14;85.54
52745;BME280;38637;49.984;20.426;2023-02-02T06:00:39;98553.53;;;3.16;85.47
52745;BME280;38637;49.984;20.426;2023-02-02T06:03:04;98565.00;;;3.23;85.25
52745;BME280;38637;49.984;20.426;2023-02-02T06:05:30;98555.50;;;3.21;85.82
52745;BME280;38637;49.984;20.426;2023-02-02T06:07:55;98555.16;;;3.17;85.74
52745;BME280;38637;49.984;20.426;2023-02-02T06:10:20;98548.00;;;3.23;85.48
52745;BME280;38637;49.984;20.426;2023-02-02T06:12:46;98559.75;;;3.29;84.86
52745;BME280;38637;49.984;20.426;2023-02-02T06:15:11;98558.22;;;3.33;84.75
52745;BME280;38637;49.984;20.426;2023-02-02T06:17:36;98557.19;;;3.34;84.99
52745;BME280;38637;49.984;20.426;2023-02-02T06:20:02;98564.56;;;3.38;84.51
52745;BME280;38637;49.984;20.426;2023-02-02T06:22:28;98560.31;;;3.42;84.51
52745;BME280;38637;49.984;20.426;2023-02-02T06:24:54;98563.00;;;3.42;83.88
52745;BME280;38637;49.984;20.426;2023-02-02T06:27:20;98556.59;;;3.43;83.90
52745;BME280;38637;49.984;20.426;2023-02-02T06:29:45;98564.09;;;3.41;83.84
52745;BME280;38637;49.984;20.426;2023-02-02T06:32:10;98544.13;;;3.42;83.18
52745;BME280;38637;49.984;20.426;2023-02-02T06:34:35;98555.78;;;3.43;82.94
52745;BME280;38637;49.984;20.426;2023-02-02T06:37:01;98550.13;;;3.44;83.50
52745;BME280;38637;49.984;20.426;2023-02-02T06:39:26;98540.75;;;3.47;83.12
52745;BME280;38637;49.984;20.426;2023-02-02T06:41:51;98541.81;;;3.46;82.22
52745;BME280;38637;49.984;20.426;2023-02-02T06:44:17;98534.06;;;3.50;82.63
52745;BME280;38637;49.984;20.426;2023-02-02T06:46:43;98537.09;;;3.53;82.56
52745;BME280;38637;49.984;20.426;2023-02-02T06:49:09;98531.22;;;3.56;81.43
52745;BME280;38637;49.984;20.426;2023-02-02T06:51:34;98530.75;;;3.59;81.37
52745;BME280;38637;49.984;20.426;2023-02-02T06:53:59;98532.84;;;3.57;80.63
52745;BME280;38637;49.984;20.426;2023-02-02T06:56:25;98531.69;;;3.65;80.53
52745;BME280;38637;49.984;20.426;2023-02-02T06:58:50;98525.81;;;3.68;80.14
52745;BME280;38637;49.984;20.426;2023-02-02T07:01:16;98517.47;;;3.69;79.83
52745;BME280;38637;49.984;20.426;2023-02-02T07:03:41;98536.47;;;3.75;80.14
52745;BME280;38637;49.984;20.426;2023-02-02T07:06:13;98533.78;;;3.75;78.81
52745;BME280;38637;49.984;20.426;2023-02-02T07:08:39;98527.31;;;3.76;78.81
52745;BME280;38637;49.984;20.426;2023-02-02T07:11:04;98521.69;;;3.77;79.03
52745;BME280;38637;49.984;20.426;2023-02-02T07:13:29;98522.84;;;3.81;78.66
52745;BME280;38637;49.984;20.426;2023-02-02T07:15:55;98532.78;;;3.92;78.08
52745;BME280;38637;49.984;20.426;2023-02-02T07:18:21;98529.63;;;3.96;77.03
52745;BME280;38637;49.984;20.426;2023-02-02T07:20:47;98529.84;;;3.94;76.62
52745;BME280;38637;49.984;20.426;2023-02-02T07:23:12;98524.56;;;3.99;76.22
52745;BME280;38637;49.984;20.426;2023-02-02T07:25:37;98513.41;;;3.96;76.22
52745;BME280;38637;49.984;20.426;2023-02-02T07:28:03;98515.38;;;4.00;76.07
52745;BME280;38637;49.984;20.426;2023-02-02T07:30:28;98515.72;;;4.04;76.18
52745;BME280;38637;49.984;20.426;2023-02-02T07:32:54;98511.38;;;4.03;75.53
52745;BME280;38637;49.984;20.426;2023-02-02T07:35:19;98510.91;;;4.06;75.42
52745;BME280;38637;49.984;20.426;2023-02-02T07:37:50;98511.50;;;4.08;75.71
52745;BME280;38637;49.984;20.426;2023-02-02T07:40:15;98505.34;;;4.12;76.15
52745;BME280;38637;49.984;20.426;2023-02-02T07:42:41;98516.16;;;4.12;75.30
52745;BME280;38637;49.984;20.426;2023-02-02T07:45:06;98511.34;;;4.14;75.44
52745;BME280;38637;49.984;20.426;2023-02-02T07:47:32;98507.00;;;4.13;75.85
52745;BME280;38637;49.984;20.426;2023-02-02T07:49:57;98521.66;;;4.18;75.95
52745;BME280;38637;49.984;20.426;2023-02-02T07:52:22;98515.19;;;4.19;76.14
52745;BME280;38637;49.984;20.426;2023-02-02T07:54:48;98511.44;;;4.20;76.59
52745;BME280;38637;49.984;20.426;2023-02-02T07:57:16;98514.00;;;4.26;76.89
52745;BME280;38637;49.984;20.426;2023-02-02T07:59:41;98506.81;;;4.32;76.72
52745;BME280;38637;49.984;20.426;2023-02-02T08:02:08;98516.88;;;4.36;77.67
52745;BME280;38637;49.984;20.426;2023-02-02T08:04:34;98508.19;;;4.34;78.87
52745;BME280;38637;49.984;20.426;2023-02-02T08:06:59;98505.78;;;4.21;79.55
52745;BME280;38637;49.984;20.426;2023-02-02T08:09:25;98511.94;;;4.17;78.92
52745;BME280;38637;49.984;20.426;2023-02-02T08:11:50;98496.88;;;3.92;79.17
52745;BME280;38637;49.984;20.426;2023-02-02T08:14:16;98515.22;;;3.66;79.81
52745;BME280;38637;49.984;20.426;2023-02-02T08:16:41;98522.06;;;3.45;80.95
52745;BME280;38637;49.984;20.426;2023-02-02T08:19:09;98516.78;;;3.51;81.11
52745;BME280;38637;49.984;20.426;2023-02-02T08:21:34;98515.38;;;3.36;81.71
52745;BME280;38637;49.984;20.426;2023-02-02T08:24:00;98511.41;;;3.39;81.67
52745;BME280;38637;49.984;20.426;2023-02-02T08:26:28;98499.31;;;3.30;82.79
52745;BME280;38637;49.984;20.426;2023-02-02T08:28:56;98514.56;;;3.24;83.74
52745;BME280;38637;49.984;20.426;2023-02-02T08:31:25;98500.75;;;3.20;84.53
52745;BME280;38637;49.984;20.426;2023-02-02T08:33:51;98499.91;;;3.20;84.56
52745;BME280;38637;49.984;20.426;2023-02-02T08:37:08;98503.69;;;3.07;85.59
52745;BME280;38637;49.984;20.426;2023-02-02T08:39:33;98507.44;;;3.06;85.95
52745;BME280;38637;49.984;20.426;2023-02-02T08:41:59;98508.47;;;3.17;85.80
52745;BME280;38637;49.984;20.426;2023-02-02T08:44:24;98497.22;;;3.43;85.36
52745;BME280;38637;49.984;20.426;2023-02-02T08:46:50;98507.84;;;3.62;84.43
52745;BME280;38637;49.984;20.426;2023-02-02T08:49:16;98503.41;;;3.67;84.05
52745;BME280;38637;49.984;20.426;2023-02-02T08:51:41;98501.38;;;3.75;84.10
52745;BME280;38637;49.984;20.426;2023-02-02T08:54:07;98491.34;;;3.87;84.75
52745;BME280;38637;49.984;20.426;2023-02-02T08:56:32;98490.53;;;3.86;84.46
52745;BME280;38637;49.984;20.426;2023-02-02T08:58:57;98488.88;;;3.85;84.42
52745;BME280;38637;49.984;20.426;2023-02-02T09:01:28;98488.53;;;3.82;84.31
52745;BME280;38637;49.984;20.426;2023-02-02T09:04:13;98480.78;;;3.85;84.72
52745;BME280;38637;49.984;20.426;2023-02-02T09:06:41;98476.31;;;3.91;84.48
52745;BME280;38637;49.984;20.426;2023-02-02T09:09:09;98482.34;;;4.10;84.13
52745;BME280;38637;49.984;20.426;2023-02-02T09:11:35;98486.50;;;4.29;83.47
52745;BME280;38637;49.984;20.426;2023-02-02T09:14:00;98488.94;;;4.31;83.20
52745;BME280;38637;49.984;20.426;2023-02-02T09:16:27;98497.69;;;4.21;84.09
52745;BME280;38637;49.984;20.426;2023-02-02T09:18:54;98489.06;;;4.07;84.13
52745;BME280;38637;49.984;20.426;2023-02-02T09:21:19;98504.44;;;4.07;84.23
52745;BME280;38637;49.984;20.426;2023-02-02T09:23:46;98484.47;;;4.08;84.24
52745;BME280;38637;49.984;20.426;2023-02-02T09:26:16;98495.50;;;4.06;84.47
52745;BME280;38637;49.984;20.426;2023-02-02T09:28:44;98478.97;;;4.03;85.16
52745;BME280;38637;49.984;20.426;2023-02-02T09:31:10;98505.31;;;3.96;85.37
52745;BME280;38637;49.984;20.426;2023-02-02T09:33:36;98499.09;;;3.95;85.70
52745;BME280;38637;49.984;20.426;2023-02-02T09:36:10;98495.78;;;3.93;86.14
52745;BME280;38637;49.984;20.426;2023-02-02T09:38:37;98501.44;;;3.91;85.66
52745;BME280;38637;49.984;20.426;2023-02-02T09:49:34;98505.66;;;3.99;86.50
52745;BME280;38637;49.984;20.426;2023-02-02T09:52:07;98495.69;;;3.88;86.95
52745;BME280;38637;49.984;20.426;2023-02-02T09:54:42;98493.63;;;3.66;87.53
52745;BME280;38637;49.984;20.426;2023-02-02T09:57:14;98505.84;;;3.69;87.61
52745;BME280;38637;49.984;20.426;2023-02-02T09:59:42;98487.31;;;3.61;87.60
52745;BME280;38637;49.984;20.426;2023-02-02T10:02:30;98504.09;;;3.51;87.80
52745;BME280;38637;49.984;20.426;2023-02-02T10:05:12;98512.69;;;3.48;88.24
52745;BME280;38637;49.984;20.426;2023-02-02T10:07:42;98512.81;;;3.53;88.38
52745;BME280;38637;49.984;20.426;2023-02-02T10:12:51;98498.94;;;3.61;87.81
52745;BME280;38637;49.984;20.426;2023-02-02T10:15:32;98487.69;;;3.64;87.23
52745;BME280;38637;49.984;20.426;2023-02-02T10:23:27;98509.28;;;3.64;87.64
52745;BME280;38637;49.984;20.426;2023-02-02T10:26:18;98518.31;;;3.58;87.98
52745;BME280;38637;49.984;20.426;2023-02-02T10:34:32;98514.91;;;3.51;87.80
52745;BME280;38637;49.984;20.426;2023-02-02T10:37:26;98543.31;;;3.42;88.47
52745;BME280;38637;49.984;20.426;2023-02-02T10:40:12;98554.69;;;3.44;89.16
52745;BME280;38637;49.984;20.426;2023-02-02T10:45:47;98542.03;;;3.44;89.46
52745;BME280;38637;49.984;20.426;2023-02-02T10:48:17;98543.91;;;3.44;89.65
52745;BME280;38637;49.984;20.426;2023-02-02T10:50:53;98551.19;;;3.43;89.02
52745;BME280;38637;49.984;20.426;2023-02-02T10:53:21;98552.47;;;3.41;89.70
52745;BME280;38637;49.984;20.426;2023-02-02T10:55:56;98547.53;;;3.38;89.62
52745;BME280;38637;49.984;20.426;2023-02-02T10:58:28;98535.13;;;3.37;89.86
52745;BME280;38637;49.984;20.426;2023-02-02T11:00:57;98535.59;;;3.34;90.32
52745;BME280;38637;49.984;20.426;2023-02-02T11:03:28;98550.47;;;3.36;90.08
52745;BME280;38637;49.984;20.426;2023-02-02T11:05:56;98552.59;;;3.34;89.66
52745;BME280;38637;49.984;20.426;2023-02-02T11:08:43;98561.03;;;3.38;89.70
52745;BME280;38637;49.984;20.426;2023-02-02T11:16:42;98560.78;;;3.39;88.26
52745;BME280;38637;49.984;20.426;2023-02-02T11:22:03;98565.16;;;3.52;88.79
52745;BME280;38637;49.984;20.426;2023-02-02T11:27:02;98558.09;;;3.51;89.38
52745;BME280;38637;49.984;20.426;2023-02-02T11:32:25;98567.59;;;3.42;89.15
52745;BME280;38637;49.984;20.426;2023-02-02T11:37:28;98561.97;;;3.55;89.15
52745;BME280;38637;49.984;20.426;2023-02-02T11:39:53;98576.50;;;3.54;89.07
52745;BME280;38637;49.984;20.426;2023-02-02T11:42:21;98576.41;;;3.49;88.81
52745;BME280;38637;49.984;20.426;2023-02-02T11:44:52;98581.22;;;3.47;88.60
52745;BME280;38637;49.984;20.426;2023-02-02T11:47:28;98593.56;;;3.43;89.20
52745;BME280;38637;49.984;20.426;2023-02-02T11:49:55;98602.81;;;3.47;89.22
52745;BME280;38637;49.984;20.426;2023-02-02T11:52:24;98608.19;;;3.35;88.63
52745;BME280;38637;49.984;20.426;2023-02-02T11:54:52;98592.72;;;3.31;90.03
52745;BME280;38637;49.984;20.426;2023-02-02T11:57:21;98601.97;;;3.35;90.66
52745;BME280;38637;49.984;20.426;2023-02-02T11:59:49;98599.97;;;3.42;90.87
52745;BME280;38637;49.984;20.426;2023-02-02T12:04:44;98592.84;;;3.59;89.38
52745;BME280;38637;49.984;20.426;2023-02-02T12:07:36;98605.97;;;3.67;88.98
52745;BME280;38637;49.984;20.426;2023-02-02T12:10:15;98595.53;;;3.71;88.80
52745;BME280;38637;49.984;20.426;2023-02-02T12:12:56;98594.81;;;3.76;87.96
52745;BME280;38637;49.984;20.426;2023-02-02T12:18:39;98614.38;;;3.95;86.91
52745;BME280;38637;49.984;20.426;2023-02-02T12:21:38;98619.69;;;4.01;87.00
52745;BME280;38637;49.984;20.426;2023-02-02T12:24:30;98620.72;;;4.00;86.68
52745;BME280;38637;49.984;20.426;2023-02-02T12:32:21;98620.38;;;3.97;85.77
52745;BME280;38637;49.984;20.426;2023-02-02T12:43:43;98637.66;;;3.96;85.45
52745;BME280;38637;49.984;20.426;2023-02-02T12:46:21;98652.56;;;3.86;85.64
52745;BME280;38637;49.984;20.426;2023-02-02T12:54:19;98668.88;;;3.91;85.42
52745;BME280;38637;49.984;20.426;2023-02-02T13:00:02;98668.53;;;3.53;88.71
52745;BME280;38637;49.984;20.426;2023-02-02T13:02:57;98669.13;;;3.43;88.83
52745;BME280;38637;49.984;20.426;2023-02-02T13:08:17;98681.53;;;3.44;91.25
52745;BME280;38637;49.984;20.426;2023-02-02T13:11:08;98694.25;;;3.55;91.11
52745;BME280;38637;49.984;20.426;2023-02-02T13:13:56;98688.38;;;3.58;90.47
52745;BME280;38637;49.984;20.426;2023-02-02T13:16:23;98703.97;;;3.56;90.84
52745;BME280;38637;49.984;20.426;2023-02-02T13:18:57;98697.97;;;3.54;90.86
52745;BME280;38637;49.984;20.426;2023-02-02T13:21:24;98703.03;;;3.51;90.42
52745;BME280;38637;49.984;20.426;2023-02-02T13:23:56;98709.94;;;3.47;90.04
52745;BME280;38637;49.984;20.426;2023-02-02T13:26:25;98711.22;;;3.44;90.11
52745;BME280;38637;49.984;20.426;2023-02-02T13:28:57;98712.13;;;3.26;90.99
52745;BME280;38637;49.984;20.426;2023-02-02T13:31:53;98719.06;;;3.34;89.42
52745;BME280;38637;49.984;20.426;2023-02-02T13:34:24;98723.28;;;3.30;89.24
52745;BME280;38637;49.984;20.426;2023-02-02T13:37:26;98717.88;;;3.30;88.81
52745;BME280;38637;49.984;20.426;2023-02-02T13:40:04;98724.09;;;3.30;89.10
52745;BME280;38637;49.984;20.426;2023-02-02T13:42:35;98728.09;;;3.28;88.36
52745;BME280;38637;49.984;20.426;2023-02-02T13:45:17;98732.56;;;3.34;87.62
52745;BME280;38637;49.984;20.426;2023-02-02T13:47:52;98742.75;;;3.32;88.19
52745;BME280;38637;49.984;20.426;2023-02-02T13:50:22;98730.34;;;3.31;86.30
52745;BME280;38637;49.984;20.426;2023-02-02T13:53:07;98753.78;;;3.30;86.81
52745;BME280;38637;49.984;20.426;2023-02-02T14:01:11;98754.06;;;3.40;84.88
52745;BME280;38637;49.984;20.426;2023-02-02T14:03:40;98755.84;;;3.47;84.23
52745;BME280;38637;49.984;20.426;2023-02-02T14:06:11;98770.50;;;3.51;83.43
52745;BME280;38637;49.984;20.426;2023-02-02T14:08:53;98775.94;;;3.62;83.37
52745;BME280;38637;49.984;20.426;2023-02-02T14:11:29;98772.78;;;3.65;83.05
52745;BME280;38637;49.984;20.426;2023-02-02T14:13:58;98772.53;;;3.67;82.75
52745;BME280;38637;49.984;20.426;2023-02-02T14:16:50;98772.31;;;3.68;81.65
52745;BME280;38637;49.984;20.426;2023-02-02T14:19:48;98799.53;;;3.55;82.07
52745;BME280;38637;49.984;20.426;2023-02-02T14:24:39;98789.03;;;3.47;83.17
52745;BME280;38637;49.984;20.426;2023-02-02T14:43:05;98816.44;;;3.62;80.70
52745;BME280;38637;49.984;20.426;2023-02-02T14:48:43;98832.72;;;3.56;81.23
52745;BME280;38637;49.984;20.426;2023-02-02T14:51:16;98823.88;;;3.49;80.49
52745;BME280;38637;49.984;20.426;2023-02-02T14:53:49;98858.16;;;3.48;80.23
52745;BME280;38637;49.984;20.426;2023-02-02T14:56:16;98865.53;;;3.41;80.19
52745;BME280;38637;49.984;20.426;2023-02-02T14:58:59;98853.91;;;3.40;80.06
52745;BME280;38637;49.984;20.426;2023-02-02T15:01:29;98877.13;;;3.41;81.01
52745;BME280;38637;49.984;20.426;2023-02-02T15:06:47;98878.31;;;3.45;80.42
52745;BME280;38637;49.984;20.426;2023-02-02T15:17:21;98890.41;;;3.43;78.67
52745;BME280;38637;49.984;20.426;2023-02-02T15:22:34;98906.53;;;3.50;79.38
52745;BME280;38637;49.984;20.426;2023-02-02T15:25:11;98916.50;;;3.49;78.82
52745;BME280;38637;49.984;20.426;2023-02-02T15:27:44;98926.00;;;3.52;79.20